Time;durP1;ratioP1;P1;durP2;ratioP2;P2;SDS_P1;SDS_P2;PMS_P1;PMS_P2;Temp;Humidity;BMP_temperature;BMP_pressure;BME280_temperature;BME280_humidity;BME280_pressure;Samples;Min_cycle;Max_cycle;Signal;HPM_P1;HPM_P2
2024/04/06 00:01:20;;;;;;;3.63;1.50;;;14.50;99.90;;;;;;5024152;28;20036;-73
2024/04/06 00:03:45;;;;;;;2.63;1.65;;;14.50;99.90;;;;;;5027730;28;20033;-73
2024/04/06 00:06:11;;;;;;;5.47;2.10;;;14.40;99.90;;;;;;5027162;28;20103;-73
2024/04/06 00:08:36;;;;;;;3.13;1.60;;;14.40;99.90;;;;;;5028572;28;20435;-74
2024/04/06 00:11:02;;;;;;;3.05;1.50;;;14.40;99.90;;;;;;5027602;28;20038;-74
2024/04/06 00:13:27;;;;;;;3.95;2.10;;;14.30;99.90;;;;;;5028799;28;20037;-73
2024/04/06 00:15:53;;;;;;;3.80;2.20;;;14.30;99.90;;;;;;5028728;28;20030;-74
2024/04/06 00:18:19;;;;;;;3.42;2.25;;;14.20;99.90;;;;;;5019689;28;20124;-73
2024/04/06 00:20:44;;;;;;;4.50;2.22;;;14.20;99.90;;;;;;5025675;28;20429;-73
2024/04/06 00:23:10;;;;;;;6.38;2.60;;;14.20;99.90;;;;;;5025398;28;20068;-72
2024/04/06 00:25:35;;;;;;;4.68;2.30;;;14.10;99.90;;;;;;5028520;28;20030;-73
2024/04/06 00:28:01;;;;;;;4.97;2.38;;;14.10;99.90;;;;;;5028043;28;20037;-74
2024/04/06 00:30:27;;;;;;;9.05;4.40;;;14.10;99.90;;;;;;5028766;28;20044;-74
2024/04/06 00:32:52;;;;;;;9.90;4.00;;;14.10;99.90;;;;;;5028548;28;20028;-74
2024/04/06 00:35:18;;;;;;;6.30;3.33;;;14.10;99.90;;;;;;5028955;28;20550;-73
2024/04/06 00:37:44;;;;;;;8.27;3.70;;;14.10;99.90;;;;;;5032325;28;20029;-73
2024/04/06 00:40:10;;;;;;;5.80;3.10;;;14.10;99.90;;;;;;5029158;28;20025;-73
2024/04/06 00:42:36;;;;;;;4.72;3.13;;;14.10;99.90;;;;;;5023335;28;20033;-74
2024/04/06 00:45:03;;;;;;;4.97;2.53;;;14.00;99.90;;;;;;5032821;28;20078;-73
2024/04/06 00:47:28;;;;;;;4.20;2.50;;;14.00;99.90;;;;;;5027194;28;20038;-73
2024/04/06 00:49:54;;;;;;;4.50;2.85;;;13.90;99.90;;;;;;5030599;28;20033;-73
2024/04/06 00:52:20;;;;;;;5.35;2.50;;;13.90;99.90;;;;;;5029385;28;20446;-73
2024/04/06 00:54:45;;;;;;;4.40;2.40;;;13.90;99.90;;;;;;5033067;28;20028;-73
2024/04/06 00:57:11;;;;;;;4.07;2.13;;;13.80;99.90;;;;;;5031904;28;20045;-73
2024/04/06 00:59:41;;;;;;;4.10;2.28;;;13.80;99.90;;;;;;5028914;28;20036;-73
2024/04/06 01:02:06;;;;;;;3.85;2.30;;;13.70;99.90;;;;;;5031949;28;20025;-73
2024/04/06 01:04:32;;;;;;;3.72;1.92;;;13.60;99.90;;;;;;5032558;28;20064;-74
2024/04/06 01:07:01;;;;;;;3.25;1.83;;;;;;;;;;5031869;28;20025;-73
2024/04/06 01:09:26;;;;;;;3.22;2.10;;;13.30;99.90;;;;;;5031648;28;20105;-74
2024/04/06 01:11:52;;;;;;;4.13;2.10;;;13.40;99.90;;;;;;5031926;28;20092;-73
2024/04/06 01:14:18;;;;;;;3.70;2.00;;;13.30;99.90;;;;;;5025276;28;20116;-75
2024/04/06 01:16:44;;;;;;;3.33;1.92;;;13.20;99.90;;;;;;5030046;28;20117;-74
2024/04/06 01:19:09;;;;;;;7.18;2.17;;;13.20;99.90;;;;;;5027600;28;20068;-74
2024/04/06 01:21:35;;;;;;;2.90;1.95;;;13.10;99.90;;;;;;5031619;28;20028;-74
2024/04/06 01:24:05;;;;;;;2.15;1.70;;;13.00;99.90;;;;;;5031095;28;20034;-74
2024/04/06 01:26:31;;;;;;;3.38;2.20;;;13.00;99.90;;;;;;5022924;28;20025;-74
2024/04/06 01:28:57;;;;;;;5.95;2.33;;;12.90;99.90;;;;;;5024636;28;20390;-74
2024/04/06 01:31:23;;;;;;;3.92;2.03;;;12.80;99.90;;;;;;5031451;28;20029;-74
2024/04/06 01:33:51;;;;;;;6.32;2.20;;;12.80;99.90;;;;;;5032263;28;20387;-74
2024/04/06 01:36:17;;;;;;;2.25;1.77;;;12.70;99.90;;;;;;5029544;28;20037;-74
2024/04/06 01:38:43;;;;;;;4.40;1.92;;;12.70;99.90;;;;;;5032158;28;20029;-74
2024/04/06 01:41:08;;;;;;;5.32;2.50;;;12.60;99.90;;;;;;5031454;28;20105;-74
2024/04/06 01:43:34;;;;;;;4.32;2.05;;;12.60;99.90;;;;;;5029908;28;20048;-74
2024/04/06 01:45:59;;;;;;;3.00;1.95;;;12.50;99.90;;;;;;5031732;28;20771;-74
2024/04/06 01:48:25;;;;;;;2.85;1.77;;;12.40;99.90;;;;;;5011621;28;20029;-74
2024/04/06 01:50:50;;;;;;;3.38;1.80;;;12.40;99.90;;;;;;5026984;28;20075;-74
2024/04/06 01:53:16;;;;;;;2.65;1.80;;;12.40;99.90;;;;;;5031112;28;20046;-74
2024/04/06 01:55:42;;;;;;;3.33;1.73;;;12.30;99.90;;;;;;5032161;28;20100;-74
2024/04/06 01:58:07;;;;;;;3.10;1.60;;;12.30;99.90;;;;;;5030489;28;20560;-74
2024/04/06 02:00:33;;;;;;;2.38;1.58;;;12.30;99.90;;;;;;5029450;28;20024;-74
2024/04/06 02:03:00;;;;;;;4.07;1.50;;;12.30;99.90;;;;;;5030898;28;20080;-74
2024/04/06 02:05:26;;;;;;;3.72;1.40;;;12.30;99.90;;;;;;5031599;28;20119;-74
2024/04/06 02:07:52;;;;;;;6.75;1.63;;;12.30;99.90;;;;;;5031390;28;20458;-73
2024/04/06 02:10:17;;;;;;;3.90;1.48;;;12.30;99.90;;;;;;5030764;28;20052;-73
2024/04/06 02:12:43;;;;;;;2.70;1.30;;;12.30;99.90;;;;;;5031506;28;20386;-74
2024/04/06 02:15:09;;;;;;;6.10;1.63;;;12.40;99.90;;;;;;5030708;28;20029;-73
2024/04/06 02:17:34;;;;;;;3.67;2.35;;;12.50;99.90;;;;;;5020644;28;20030;-74
2024/04/06 02:20:00;;;;;;;4.07;1.60;;;12.50;99.90;;;;;;5029453;28;20017;-73
2024/04/06 02:22:25;;;;;;;2.35;1.30;;;12.50;99.90;;;;;;5031321;28;20431;-74
2024/04/06 02:24:51;;;;;;;2.22;1.15;;;12.60;99.90;;;;;;5031322;28;20096;-74
2024/04/06 02:27:17;;;;;;;2.13;1.10;;;12.60;99.90;;;;;;5030120;28;20587;-74
2024/04/06 02:29:43;;;;;;;4.20;1.58;;;12.60;99.90;;;;;;5024901;28;20521;-73
2024/04/06 02:32:08;;;;;;;2.70;1.35;;;12.60;99.90;;;;;;5030453;28;20021;-73
2024/04/06 02:34:34;;;;;;;2.65;1.70;;;12.60;99.90;;;;;;5020227;28;20360;-73
2024/04/06 02:36:59;;;;;;;2.97;1.83;;;12.50;99.90;;;;;;5026984;28;20033;-73
2024/04/06 02:39:25;;;;;;;2.38;1.50;;;12.50;99.90;;;;;;5031421;28;20029;-74
2024/04/06 02:41:50;;;;;;;4.03;1.63;;;12.40;99.90;;;;;;5030813;28;20035;-74
2024/04/06 02:44:16;;;;;;;3.33;1.20;;;12.20;99.90;;;;;;5030198;28;20771;-73
2024/04/06 02:46:42;;;;;;;4.20;1.60;;;12.20;99.90;;;;;;5027779;28;20032;-74
2024/04/06 02:49:07;;;;;;;1.10;1.00;;;12.20;99.90;;;;;;5026217;28;20065;-74
2024/04/06 02:51:33;;;;;;;1.88;1.30;;;12.20;99.90;;;;;;5025931;28;20026;-74
2024/04/06 02:53:59;;;;;;;2.45;1.30;;;12.10;99.90;;;;;;5030911;28;20039;-74
2024/04/06 02:56:25;;;;;;;2.28;1.40;;;12.10;99.90;;;;;;5029441;28;20042;-74
2024/04/06 02:58:51;;;;;;;4.85;1.50;;;12.10;99.90;;;;;;5030763;28;20113;-74
2024/04/06 03:01:16;;;;;;;3.47;1.50;;;12.10;99.90;;;;;;5029981;28;20470;-74
2024/04/06 03:03:42;;;;;;;3.03;1.20;;;;;;;;;;5030710;28;20084;-74
2024/04/06 03:06:08;;;;;;;2.40;1.50;;;;;;;;;;5028740;28;20046;-73
2024/04/06 03:08:34;;;;;;;2.35;1.20;;;12.20;99.90;;;;;;5020435;28;20021;-74
2024/04/06 03:10:59;;;;;;;2.92;0.90;;;12.10;99.90;;;;;;5029481;28;20025;-74
2024/04/06 03:13:25;;;;;;;2.72;1.40;;;12.10;99.90;;;;;;5030328;28;20427;-74
2024/04/06 03:15:51;;;;;;;2.13;1.27;;;12.10;99.90;;;;;;5030575;28;20048;-74
2024/04/06 03:18:16;;;;;;;2.28;1.50;;;12.10;99.90;;;;;;5019653;28;20038;-74
2024/04/06 03:20:42;;;;;;;1.95;1.30;;;12.00;99.90;;;;;;5030302;28;20028;-75
2024/04/06 03:23:08;;;;;;;4.18;1.75;;;12.00;99.90;;;;;;5028682;28;20041;-74
2024/04/06 03:25:34;;;;;;;5.47;2.40;;;12.00;99.90;;;;;;5028757;28;20026;-74
2024/04/06 03:28:00;;;;;;;3.47;1.90;;;12.00;99.90;;;;;;5027012;28;20481;-74
2024/04/06 03:30:25;;;;;;;3.92;2.08;;;11.90;99.90;;;;;;5030320;28;20097;-74
2024/04/06 03:32:52;;;;;;;6.80;2.10;;;12.00;99.90;;;;;;5029540;28;20446;-74
2024/04/06 03:35:19;;;;;;;5.30;2.00;;;12.00;99.90;;;;;;5029628;28;20040;-75
2024/04/06 03:37:49;;;;;;;3.28;1.77;;;12.00;99.90;;;;;;5029095;28;20060;-75
2024/04/06 03:40:15;;;;;;;3.45;1.30;;;11.90;99.90;;;;;;5029571;28;20099;-74
2024/04/06 03:42:41;;;;;;;2.00;1.20;;;12.00;99.90;;;;;;5016726;28;20036;-74
2024/04/06 03:45:10;;;;;;;2.85;1.52;;;12.00;99.90;;;;;;5025087;28;20467;-74
2024/04/06 03:47:35;;;;;;;4.47;2.15;;;12.10;99.90;;;;;;5024692;28;20044;-75
2024/04/06 03:50:01;;;;;;;5.05;2.22;;;12.00;99.90;;;;;;5027213;28;20037;-74
2024/04/06 03:52:28;;;;;;;4.75;2.42;;;12.00;99.90;;;;;;5028539;28;20471;-75
2024/04/06 03:54:54;;;;;;;7.97;2.50;;;12.00;99.90;;;;;;5029822;28;20104;-74
2024/04/06 03:57:20;;;;;;;5.38;1.90;;;11.90;99.90;;;;;;5028752;28;20419;-74
2024/04/06 03:59:45;;;;;;;5.22;1.90;;;11.90;99.90;;;;;;5023911;28;20053;-74
2024/04/06 04:02:11;;;;;;;4.60;2.50;;;11.80;99.90;;;;;;5029220;28;20490;-72
2024/04/06 04:04:36;;;;;;;4.53;2.10;;;11.80;99.90;;;;;;5033239;28;20125;-74
2024/04/06 04:07:03;;;;;;;3.17;1.67;;;11.70;99.90;;;;;;5038349;28;20083;-74
2024/04/06 04:09:28;;;;;;;3.97;2.13;;;11.60;99.90;;;;;;5039069;28;20462;-74
2024/04/06 04:11:54;;;;;;;5.20;2.10;;;11.60;99.90;;;;;;5039174;28;20112;-75
2024/04/06 04:14:19;;;;;;;5.25;2.22;;;11.50;99.90;;;;;;5032636;28;20029;-75
2024/04/06 04:16:46;;;;;;;6.07;2.08;;;11.40;99.90;;;;;;5025010;28;20104;-74
2024/04/06 04:19:11;;;;;;;3.75;2.35;;;11.30;99.90;;;;;;5025172;28;20116;-74
2024/04/06 04:21:37;;;;;;;6.60;2.88;;;11.30;99.90;;;;;;5029078;28;20100;-74
2024/04/06 04:24:03;;;;;;;3.88;2.70;;;11.30;99.90;;;;;;5020276;28;20408;-73
2024/04/06 04:26:28;;;;;;;4.75;2.20;;;11.30;99.90;;;;;;5028769;28;20032;-75
2024/04/06 04:28:54;;;;;;;3.97;1.85;;;11.20;99.90;;;;;;5027640;28;20029;-73
2024/04/06 04:31:20;;;;;;;5.40;2.13;;;11.10;99.90;;;;;;5028575;28;20033;-74
2024/04/06 04:33:45;;;;;;;3.85;2.15;;;11.00;99.90;;;;;;5023862;28;20035;-74
2024/04/06 04:36:12;;;;;;;2.97;1.70;;;10.80;99.90;;;;;;5027876;28;20048;-74
2024/04/06 04:38:38;;;;;;;5.20;3.05;;;10.80;99.90;;;;;;5030111;28;20029;-74
2024/04/06 04:41:04;;;;;;;6.45;2.92;;;10.70;99.90;;;;;;5028067;28;20033;-74
2024/04/06 04:43:30;;;;;;;6.57;2.80;;;10.70;99.90;;;;;;5029729;28;20030;-74
2024/04/06 04:45:55;;;;;;;7.40;3.80;;;10.60;99.90;;;;;;5029184;28;20025;-74
2024/04/06 04:48:21;;;;;;;11.77;5.75;;;10.60;99.90;;;;;;5020544;28;20105;-74
2024/04/06 04:50:46;;;;;;;7.72;4.65;;;10.60;99.90;;;;;;5028564;28;20100;-74
2024/04/06 04:53:12;;;;;;;5.07;3.28;;;10.50;99.90;;;;;;5028167;28;20083;-73
2024/04/06 04:55:38;;;;;;;12.68;4.00;;;10.50;99.90;;;;;;5028943;28;20034;-72
2024/04/06 04:58:04;;;;;;;6.85;3.15;;;10.50;99.90;;;;;;5028555;28;20087;-72
2024/04/06 05:00:29;;;;;;;7.65;3.50;;;10.50;99.90;;;;;;5029421;28;20086;-73
2024/04/06 05:02:56;;;;;;;6.97;3.30;;;10.40;99.90;;;;;;5028566;28;20068;-73
2024/04/06 05:05:22;;;;;;;6.70;3.15;;;10.40;99.90;;;;;;5028722;28;20099;-76
2024/04/06 05:07:48;;;;;;;9.57;3.95;;;10.40;99.90;;;;;;5024728;28;20428;-74
2024/04/06 05:10:14;;;;;;;8.77;3.72;;;10.40;99.90;;;;;;5028614;28;20060;-75
2024/04/06 05:12:40;;;;;;;7.15;3.30;;;10.50;99.90;;;;;;5028417;28;20022;-75
2024/04/06 05:15:06;;;;;;;6.05;3.25;;;10.50;99.90;;;;;;5028843;28;20037;-73
2024/04/06 05:17:32;;;;;;;6.18;3.08;;;10.40;99.90;;;;;;5024861;28;20025;-73
2024/04/06 05:19:58;;;;;;;9.55;3.15;;;10.50;99.90;;;;;;5032263;28;20041;-73
2024/04/06 05:22:23;;;;;;;7.05;3.15;;;10.50;99.90;;;;;;5031371;28;20033;-80
2024/04/06 05:24:49;;;;;;;5.15;2.13;;;10.50;99.90;;;;;;5024096;28;20056;-81
2024/04/06 05:27:14;;;;;;;8.00;3.05;;;10.50;99.90;;;;;;5031482;28;20025;-83
2024/04/06 05:29:40;;;;;;;6.40;3.25;;;10.60;99.90;;;;;;5031817;28;20049;-80
2024/04/06 05:32:06;;;;;;;6.70;3.53;;;10.60;99.90;;;;;;5030578;28;20037;-84
2024/04/06 05:34:31;;;;;;;6.88;2.85;;;10.70;99.90;;;;;;5032039;28;20360;-83
2024/04/06 05:36:58;;;;;;;7.40;3.42;;;10.70;99.90;;;;;;5030811;28;20041;-73
2024/04/06 05:39:23;;;;;;;7.20;3.40;;;10.70;99.90;;;;;;5029507;28;20026;-80
2024/04/06 05:41:49;;;;;;;10.05;3.80;;;10.80;99.90;;;;;;5028909;28;20034;-86
2024/04/06 05:44:15;;;;;;;12.48;3.83;;;10.80;99.90;;;;;;5030640;28;20096;-82
2024/04/06 05:46:40;;;;;;;6.43;3.22;;;10.90;99.90;;;;;;5029575;28;20022;-82
2024/04/06 05:49:06;;;;;;;7.97;3.90;;;11.00;99.90;;;;;;5023414;28;20041;-81
2024/04/06 05:51:32;;;;;;;5.90;3.13;;;11.10;99.90;;;;;;5029591;28;20398;-84
2024/04/06 05:54:00;;;;;;;10.45;4.93;;;11.10;99.90;;;;;;5031334;28;20442;-73
2024/04/06 05:56:25;;;;;;;13.75;4.88;;;11.20;99.90;;;;;;5031071;28;20060;-80
2024/04/06 05:58:51;;;;;;;9.07;4.43;;;11.30;99.90;;;;;;5026024;28;20053;-80
2024/04/06 06:01:16;;;;;;;9.50;4.35;;;11.40;99.90;;;;;;5031172;28;20160;-82
2024/04/06 06:03:42;;;;;;;10.68;3.97;;;11.50;99.90;;;;;;5030194;28;20033;-82
2024/04/06 06:06:08;;;;;;;6.18;3.47;;;11.60;99.90;;;;;;5029721;28;20136;-73
2024/04/06 06:08:34;;;;;;;6.43;3.17;;;11.80;99.90;;;;;;5025766;28;20040;-79
2024/04/06 06:11:00;;;;;;;5.70;3.10;;;11.90;99.90;;;;;;5021696;28;20132;-78
2024/04/06 06:13:26;;;;;;;7.00;3.00;;;12.00;99.90;;;;;;5027759;28;20299;-78
2024/04/06 06:15:51;;;;;;;7.35;3.53;;;12.10;99.90;;;;;;5027627;28;20025;-80
2024/04/06 06:18:17;;;;;;;9.82;3.50;;;12.20;99.90;;;;;;5020114;28;20026;-77
2024/04/06 06:20:43;;;;;;;12.55;5.07;;;12.30;99.90;;;;;;5030981;28;20385;-76
2024/04/06 06:23:08;;;;;;;10.80;4.25;;;12.50;99.90;;;;;;5029324;28;20095;-76
2024/04/06 06:25:34;;;;;;;9.25;3.83;;;12.60;99.90;;;;;;5026838;28;20030;-79
2024/04/06 06:28:00;;;;;;;8.55;4.10;;;12.70;99.90;;;;;;5024586;28;20104;-81
2024/04/06 06:30:26;;;;;;;8.77;3.20;;;12.90;99.90;;;;;;5028994;28;20029;-77
2024/04/06 06:32:52;;;;;;;7.25;3.30;;;13.10;99.90;;;;;;5029833;28;20067;-76
2024/04/06 06:35:18;;;;;;;6.28;3.70;;;13.30;99.90;;;;;;5031620;28;20037;-79
2024/04/06 06:37:45;;;;;;;7.47;3.58;;;13.50;99.90;;;;;;5023975;28;20108;-76
2024/04/06 06:40:11;;;;;;;7.47;3.63;;;13.60;99.90;;;;;;5028744;28;20021;-77
2024/04/06 06:42:37;;;;;;;4.75;3.17;;;13.90;99.90;;;;;;5033493;28;20473;-78
2024/04/06 06:45:05;;;;;;;5.53;3.65;;;14.00;99.90;;;;;;5029818;28;20037;-71
2024/04/06 06:47:35;;;;;;;5.32;3.22;;;14.10;99.90;;;;;;5026062;28;20104;-71
2024/04/06 06:50:02;;;;;;;6.38;3.38;;;14.20;99.90;;;;;;5027103;28;20024;-72
2024/04/06 06:52:28;;;;;;;9.25;3.40;;;14.30;99.90;;;;;;5028380;28;20492;-72
2024/04/06 06:54:54;;;;;;;7.45;3.35;;;14.40;99.90;;;;;;5029626;28;20045;-69
2024/04/06 06:57:20;;;;;;;5.22;3.08;;;14.50;99.90;;;;;;5029828;28;20366;-73
2024/04/06 06:59:45;;;;;;;8.10;3.83;;;14.60;99.90;;;;;;5034991;28;20033;-76
2024/04/06 07:02:11;;;;;;;4.80;3.40;;;14.70;99.90;;;;;;5029008;28;20022;-71
2024/04/06 07:04:36;;;;;;;7.78;4.03;;;14.80;99.90;;;;;;5028495;28;20518;-68
2024/04/06 07:07:03;;;;;;;7.93;3.80;;;14.90;99.90;;;;;;5028210;28;20026;-68
2024/04/06 07:09:28;;;;;;;7.50;3.45;;;15.00;99.90;;;;;;5038223;28;20037;-70
2024/04/06 07:11:54;;;;;;;6.43;3.00;;;15.20;99.90;;;;;;5038802;28;20045;-70
2024/04/06 07:14:20;;;;;;;5.80;3.10;;;15.30;99.90;;;;;;5033803;28;20038;-69
2024/04/06 07:16:46;;;;;;;4.25;2.70;;;15.40;99.90;;;;;;5032459;28;20180;-70
2024/04/06 07:19:12;;;;;;;6.20;2.65;;;15.50;99.90;;;;;;5030237;28;20034;-70
2024/04/06 07:21:37;;;;;;;5.30;3.10;;;15.50;99.90;;;;;;5033745;28;20033;-71
2024/04/06 07:24:04;;;;;;;6.22;2.90;;;15.70;99.90;;;;;;5033668;28;20029;-68
2024/04/06 07:26:29;;;;;;;3.78;2.00;;;15.80;99.90;;;;;;5040691;28;20128;-71
2024/04/06 07:28:56;;;;;;;4.18;2.38;;;16.00;99.90;;;;;;5038397;28;20040;-69
2024/04/06 07:31:26;;;;;;;5.75;3.20;;;16.10;99.90;;;;;;5031129;28;20083;-69
2024/04/06 07:33:52;;;;;;;6.90;2.72;;;16.30;99.90;;;;;;5031235;28;20415;-74
2024/04/06 07:36:20;;;;;;;4.55;2.00;;;16.50;99.90;;;;;;5033972;28;20026;-71
2024/04/06 07:38:46;;;;;;;3.70;1.80;;;16.60;99.90;;;;;;5032705;28;20152;-70
2024/04/06 07:41:11;;;;;;;4.18;2.25;;;16.80;99.90;;;;;;5031266;28;20090;-69
2024/04/06 07:43:37;;;;;;;3.33;2.00;;;16.90;99.90;;;;;;5027340;28;20033;-70
2024/04/06 07:46:03;;;;;;;2.85;1.75;;;17.10;99.90;;;;;;5028867;28;20078;-73
2024/04/06 07:48:28;;;;;;;4.78;2.20;;;17.20;99.90;;;;;;5023441;28;20446;-75
2024/04/06 07:50:54;;;;;;;3.63;2.03;;;17.20;99.90;;;;;;5026298;28;20091;-76
2024/04/06 07:53:19;;;;;;;7.13;2.10;;;17.30;99.90;;;;;;5026444;28;20041;-80
2024/04/06 07:55:45;;;;;;;5.65;2.13;;;17.50;99.90;;;;;;5038140;28;20029;-76
2024/04/06 07:58:11;;;;;;;3.90;2.10;;;17.50;99.90;;;;;;5044684;28;20029;-73
2024/04/06 08:00:37;;;;;;;4.40;2.40;;;17.60;99.90;;;;;;5053522;28;20025;-78
2024/04/06 08:03:04;;;;;;;3.90;2.55;;;17.80;99.90;;;;;;5047844;28;20069;-76
2024/04/06 08:05:30;;;;;;;6.78;2.90;;;17.90;99.90;;;;;;5046652;28;20045;-77
2024/04/06 08:07:55;;;;;;;6.15;2.20;;;18.00;99.90;;;;;;5049300;28;20133;-76
2024/04/06 08:10:22;;;;;;;5.47;2.20;;;18.10;99.90;;;;;;5052041;28;20029;-75
2024/04/06 08:12:49;;;;;;;2.63;2.00;;;18.20;99.90;;;;;;5042686;28;20061;-82
2024/04/06 08:15:16;;;;;;;5.15;1.73;;;18.20;99.90;;;;;;5028803;28;20029;-75
2024/04/06 08:17:46;;;;;;;5.65;1.90;;;18.50;99.90;;;;;;5023779;28;20037;-76
2024/04/06 08:20:12;;;;;;;7.38;2.08;;;18.60;99.90;;;;;;5027879;28;20052;-78
2024/04/06 08:22:41;;;;;;;2.85;2.20;;;18.70;99.90;;;;;;5028508;28;20088;-81
2024/04/06 08:25:07;;;;;;;3.10;2.00;;;18.90;99.90;;;;;;5028645;28;20084;-81
2024/04/06 08:27:33;;;;;;;4.18;1.88;;;19.00;99.90;;;;;;5029576;28;20025;-80
2024/04/06 08:29:59;;;;;;;7.53;2.30;;;19.30;99.90;;;;;;5028517;28;20116;-77
2024/04/06 08:32:25;;;;;;;5.25;2.03;;;19.60;99.90;;;;;;5028724;28;20061;-78
2024/04/06 08:34:55;;;;;;;2.90;1.67;;;19.80;99.90;;;;;;5030461;28;20609;-80
2024/04/06 08:37:21;;;;;;;5.70;2.30;;;20.00;99.90;;;;;;5026892;28;20407;-82
2024/04/06 08:39:47;;;;;;;4.40;2.00;;;20.10;99.90;;;;;;5029771;28;20164;-79
2024/04/06 08:42:18;;;;;;;3.75;1.88;;;20.20;99.90;;;;;;5028231;28;20061;-80
2024/04/06 08:44:44;;;;;;;8.80;1.90;;;20.20;99.90;;;;;;5029045;28;20030;-76
2024/04/06 08:47:14;;;;;;;2.88;1.73;;;20.40;99.90;;;;;;5022622;28;20056;-75
2024/04/06 08:49:40;;;;;;;;;;;20.40;99.90;;;;;;5024941;28;20433;-80
2024/04/06 08:52:07;;;;;;;2.03;1.60;;;20.50;99.70;;;;;;5036624;28;19912;-81
2024/04/06 08:54:33;;;;;;;3.00;1.63;;;20.50;99.50;;;;;;5044828;28;20041;-81
2024/04/06 08:57:02;;;;;;;3.05;1.98;;;20.70;99.00;;;;;;5032886;28;20029;-77
2024/04/06 08:59:28;;;;;;;2.72;1.52;;;20.80;98.90;;;;;;5040441;28;20028;-77
2024/04/06 09:01:54;;;;;;;4.25;1.67;;;20.90;98.50;;;;;;5031649;28;20541;-78
2024/04/06 09:04:20;;;;;;;3.22;1.60;;;21.00;98.50;;;;;;5025358;28;20502;-79
2024/04/06 09:06:46;;;;;;;2.22;1.58;;;21.10;98.00;;;;;;5028782;28;20044;-77
2024/04/06 09:09:12;;;;;;;1.45;1.13;;;21.20;98.00;;;;;;5025676;28;20068;-76
2024/04/06 09:11:38;;;;;;;1.70;1.15;;;21.40;97.50;;;;;;5031485;28;20439;-78
2024/04/06 09:14:07;;;;;;;4.32;1.42;;;21.50;96.40;;;;;;5031477;28;20537;-72
2024/04/06 09:16:36;;;;;;;1.85;1.05;;;21.70;95.90;;;;;;5028812;28;20462;-73
2024/04/06 09:19:02;;;;;;;2.30;1.40;;;21.90;95.80;;;;;;5026553;28;20037;-73
2024/04/06 09:21:28;;;;;;;3.35;1.20;;;22.00;95.40;;;;;;5028984;28;20037;-73
2024/04/06 09:23:54;;;;;;;2.13;1.13;;;22.20;95.30;;;;;;5032286;28;20092;-74
2024/04/06 09:26:21;;;;;;;5.50;1.13;;;;;;;;;;5030747;28;20029;-72
2024/04/06 09:28:53;;;;;;;1.70;1.27;;;22.30;94.70;;;;;;5025142;28;20201;-79
2024/04/06 09:31:22;;;;;;;4.95;1.50;;;22.40;94.50;;;;;;5031312;28;20018;-75
2024/04/06 09:33:55;;;;;;;3.20;1.20;;;22.40;94.00;;;;;;5031364;28;20045;-72
2024/04/06 09:36:21;;;;;;;1.75;1.42;;;22.50;93.80;;;;;;5028910;28;20017;-71
2024/04/06 09:38:48;;;;;;;2.63;1.20;;;22.50;93.60;;;;;;5026791;28;20037;-71
2024/04/06 09:41:16;;;;;;;4.53;1.33;;;22.60;93.50;;;;;;5035670;28;20033;-70
2024/04/06 09:43:46;;;;;;;9.05;1.45;;;22.70;93.40;;;;;;5032211;28;20394;-73
2024/04/06 09:46:12;;;;;;;3.45;1.08;;;22.80;92.30;;;;;;5031086;28;20406;-74
2024/04/06 09:48:38;;;;;;;2.17;1.00;;;22.90;90.70;;;;;;5027085;28;20092;-74
2024/04/06 09:51:05;;;;;;;4.60;1.10;;;23.00;89.80;;;;;;5030586;28;20112;-72
2024/04/06 09:53:32;;;;;;;2.50;1.13;;;23.00;89.10;;;;;;5031955;28;20106;-74
2024/04/06 09:55:59;;;;;;;1.52;1.02;;;23.20;86.40;;;;;;5028194;28;20394;-76
2024/04/06 09:58:29;;;;;;;2.13;1.13;;;23.40;87.10;;;;;;5031495;28;20026;-74
2024/04/06 10:01:16;;;;;;;1.63;1.23;;;23.50;87.20;;;;;;5032006;28;20037;-72
2024/04/06 10:03:45;;;;;;;2.10;1.10;;;23.70;86.50;;;;;;5031761;28;20033;-72
2024/04/06 10:06:21;;;;;;;0.98;0.90;;;23.90;86.30;;;;;;5029304;28;20054;-72
2024/04/06 10:08:52;;;;;;;1.67;1.17;;;24.00;85.10;;;;;;5020573;28;20022;-73
2024/04/06 10:11:20;;;;;;;2.08;1.30;;;24.20;81.80;;;;;;5030277;28;20036;-73
2024/04/06 10:13:53;;;;;;;5.57;1.33;;;24.40;80.60;;;;;;5028001;28;20116;-73
2024/04/06 10:16:21;;;;;;;1.63;1.23;;;24.50;77.30;;;;;;5028734;28;20041;-70
2024/04/06 10:18:47;;;;;;;1.35;0.90;;;24.70;76.20;;;;;;5024054;28;20030;-71
2024/04/06 10:21:16;;;;;;;1.45;0.93;;;24.80;75.30;;;;;;5030710;28;20493;-69
2024/04/06 10:23:46;;;;;;;1.77;1.13;;;25.00;74.90;;;;;;5031156;28;20116;-70
2024/04/06 10:26:16;;;;;;;2.30;1.20;;;25.10;74.70;;;;;;5030762;28;20101;-70
2024/04/06 10:28:44;;;;;;;;;;;25.20;72.10;;;;;;5022504;28;20033;-71
2024/04/06 10:31:10;;;;;;;1.70;1.00;;;25.30;69.80;;;;;;5019287;28;20036;-71
2024/04/06 10:33:39;;;;;;;3.65;1.20;;;25.40;70.60;;;;;;5029095;28;20151;-69
2024/04/06 10:36:12;;;;;;;1.63;0.80;;;25.50;67.80;;;;;;5026435;28;20034;-70
2024/04/06 10:38:44;;;;;;;2.67;0.88;;;25.60;65.90;;;;;;5030902;28;20025;-71
2024/04/06 10:41:09;;;;;;;4.35;0.93;;;25.80;66.10;;;;;;5030071;28;20033;-71
2024/04/06 10:43:35;;;;;;;2.38;1.10;;;25.90;64.20;;;;;;5030039;28;20075;-71
2024/04/06 10:46:02;;;;;;;1.60;0.77;;;26.10;63.30;;;;;;5024733;28;20030;-71
2024/04/06 10:48:28;;;;;;;2.70;0.93;;;26.20;63.00;;;;;;5021737;28;20044;-71
2024/04/06 10:50:55;;;;;;;1.73;0.98;;;26.20;62.80;;;;;;5029728;28;20037;-71
2024/04/06 10:53:25;;;;;;;1.15;0.80;;;26.40;62.40;;;;;;5019209;28;20037;-70
2024/04/06 10:55:52;;;;;;;3.80;1.00;;;26.50;61.50;;;;;;5030493;28;20383;-70
2024/04/06 10:58:18;;;;;;;5.82;1.17;;;26.60;60.50;;;;;;5029767;28;20186;-72
2024/04/06 11:00:45;;;;;;;1.00;0.90;;;26.60;60.70;;;;;;5030623;28;20025;-68
2024/04/06 11:03:11;;;;;;;1.42;0.80;;;26.70;60.50;;;;;;5022935;28;20033;-72
2024/04/06 11:05:37;;;;;;;2.22;0.98;;;26.80;60.20;;;;;;5023210;28;20073;-68
2024/04/06 11:08:04;;;;;;;1.45;0.60;;;26.80;59.60;;;;;;5029552;28;20018;-69
2024/04/06 11:10:30;;;;;;;3.05;1.10;;;26.90;59.90;;;;;;5030706;28;20041;-72
2024/04/06 11:12:57;;;;;;;4.60;1.23;;;;;;;;;;5030071;28;20052;-69
2024/04/06 11:15:23;;;;;;;3.00;1.02;;;;;;;;;;5029831;28;20033;-69
2024/04/06 11:17:58;;;;;;;1.70;1.02;;;;;;;;;;5024684;28;20108;-71
2024/04/06 11:20:25;;;;;;;1.60;0.90;;;;;;;;;;5025878;28;20113;-68
2024/04/06 11:22:51;;;;;;;2.03;0.90;;;;;;;;;;5030348;28;20113;-69
2024/04/06 11:25:18;;;;;;;1.63;1.00;;;;;;;;;;5028737;28;20517;-69
2024/04/06 11:27:48;;;;;;;1.33;0.80;;;;;;;;;;5026449;28;20022;-69
2024/04/06 11:30:16;;;;;;;1.40;1.08;;;;;;;;;;5026454;28;20486;-68
2024/04/06 11:32:42;;;;;;;2.03;0.95;;;;;;;;;;5029471;28;20025;-68
2024/04/06 11:35:08;;;;;;;1.10;0.95;;;28.30;55.40;;;;;;5029933;28;20072;-69
2024/04/06 11:37:34;;;;;;;18.30;14.10;;;28.30;56.40;;;;;;5025075;28;20473;-69
2024/04/06 11:40:00;;;;;;;10.55;4.78;;;28.50;55.80;;;;;;5029787;28;20056;-69
2024/04/06 11:42:26;;;;;;;1.20;0.98;;;28.60;54.70;;;;;;5028974;28;20025;-69
2024/04/06 11:44:51;;;;;;;1.30;0.98;;;28.70;54.70;;;;;;5030291;28;20040;-69
2024/04/06 11:47:17;;;;;;;2.97;1.17;;;28.90;54.60;;;;;;5024822;28;20043;-69
2024/04/06 11:49:43;;;;;;;0.82;0.77;;;29.20;54.40;;;;;;5026326;28;20088;-68
2024/04/06 11:52:08;;;;;;;1.30;1.13;;;29.30;54.00;;;;;;5028790;28;20379;-69
2024/04/06 11:54:35;;;;;;;1.20;0.82;;;29.30;53.50;;;;;;5026498;28;20073;-68
2024/04/06 11:57:01;;;;;;;1.65;0.60;;;29.50;52.90;;;;;;5028493;28;20056;-69
2024/04/06 11:59:26;;;;;;;1.60;0.80;;;29.50;52.90;;;;;;5029762;28;20434;-69
2024/04/06 12:01:53;;;;;;;1.05;0.90;;;29.60;52.60;;;;;;5030228;28;20068;-68
2024/04/06 12:04:19;;;;;;;1.52;1.00;;;;;;;;;;5028538;28;20470;-68
2024/04/06 12:06:45;;;;;;;1.17;1.00;;;;;;;;;;5025516;28;20352;-69
2024/04/06 12:09:11;;;;;;;1.70;1.05;;;;;;;;;;5029431;28;20025;-69
2024/04/06 12:11:37;;;;;;;1.75;1.10;;;;;;;;;;5019735;28;20049;-72
2024/04/06 12:14:03;;;;;;;1.85;1.10;;;;;;;;;;5028799;28;20090;-72
2024/04/06 12:16:30;;;;;;;1.38;1.27;;;31.00;86.70;;;;;;5027510;28;20474;-70
2024/04/06 12:19:00;;;;;;;3.22;1.20;;;;;;;;;;5025690;28;20030;-72
2024/04/06 12:21:26;;;;;;;1.83;1.05;;;;;;;;;;5028957;28;20105;-69
2024/04/06 12:23:52;;;;;;;0.93;0.93;;;;;;;;;;5029748;28;20116;-69
2024/04/06 12:26:18;;;;;;;0.98;0.98;;;;;;;;;;5020026;28;20018;-72
2024/04/06 12:28:44;;;;;;;2.10;0.70;;;;;;;;;;5028005;28;20129;-70
2024/04/06 12:31:10;;;;;;;1.27;1.08;;;;;;;;;;5032131;28;20029;-69
2024/04/06 12:33:36;;;;;;;1.30;1.20;;;;;;;;;;5034362;28;20055;-70
2024/04/06 12:36:04;;;;;;;1.38;1.30;;;;;;;;;;5032474;28;20463;-70
2024/04/06 12:38:31;;;;;;;2.38;1.48;;;;;;;;;;5027859;28;20025;-69
2024/04/06 12:40:57;;;;;;;2.50;1.05;;;;;;;;;;5033632;28;20066;-69
2024/04/06 12:43:23;;;;;;;2.20;1.40;;;;;;;;;;5032806;28;20093;-68
2024/04/06 12:45:49;;;;;;;1.88;1.23;;;;;;;;;;5029896;28;20433;-69
2024/04/06 12:48:15;;;;;;;1.50;1.40;;;;;;;;;;5026205;28;20112;-70
2024/04/06 12:50:46;;;;;;;0.90;0.90;;;;;;;;;;5031894;28;20040;-69
2024/04/06 12:53:12;;;;;;;3.15;1.25;;;;;;;;;;5031071;28;20021;-69